Terminal Aerodrome Forecast
Issued by NWS Atlanta, GA

Home | Current Version | Previous Version | Text Only | Print | Product List | Glossary On
Versions: 1 2 3 4 5 6 7 8 9 10 11 12 13 14 15 16 17 18 19 20 21 22 23 24 25 26 27 28 29 30 31 32 33 34 35 36
000
FTUS42 KFFC 230729 AAC
TAFATL
TAF AMD
KATL 230729Z 2307/2412 11016G26KT 4SM SHRA BR OVC008
     FM231200 13011KT 6SM BR OVC006
      TEMPO 2312/2315 4SM SHRA BR OVC003
     FM231500 13009KT P6SM -RA OVC008
     FM232200 11007KT P6SM BKN020
     FM240100 20006KT P6SM BKN025
     FM240500 28004KT P6SM BKN035=

USA.gov is the U.S. government's official web portal to all federal, state and local government web resources and services.